createdAt,value
2023-05-15T00:00:56.880Z,106.80
2023-05-15T00:03:25.520Z,98.90
2023-05-15T00:05:52.429Z,76.10
2023-05-15T00:08:19.870Z,68.60
2023-05-15T00:10:59.761Z,80.50
2023-05-15T00:13:27.579Z,82.90
2023-05-15T00:15:54.348Z,75.50
2023-05-15T00:18:21.380Z,73.10
2023-05-15T00:20:48.150Z,75.00
2023-05-15T00:23:15.562Z,42.90
2023-05-15T00:25:42.394Z,38.40
2023-05-15T00:28:09.352Z,39.50
2023-05-15T00:30:36.629Z,43.00
2023-05-15T00:33:03.664Z,41.10
2023-05-15T00:35:32.002Z,32.30
2023-05-15T00:37:58.868Z,50.10
2023-05-15T00:40:25.702Z,32.20
2023-05-15T00:42:52.966Z,40.90
2023-05-15T00:45:20.112Z,38.00
2023-05-15T00:47:47.826Z,36.00
2023-05-15T00:50:14.926Z,35.90
2023-05-15T00:52:41.947Z,30.70
2023-05-15T00:57:37.191Z,38.00
2023-05-15T01:00:09.625Z,34.60
2023-05-15T01:02:37.999Z,43.90
2023-05-15T01:05:07.509Z,42.30
2023-05-15T01:07:45.389Z,33.70
2023-05-15T01:10:12.393Z,27.20
2023-05-15T01:12:39.860Z,27.10
2023-05-15T01:15:09.233Z,32.00
2023-05-15T01:17:36.186Z,30.70
2023-05-15T01:20:05.819Z,30.70
2023-05-15T01:22:53.463Z,26.50
2023-05-15T01:25:43.971Z,32.60
2023-05-15T01:28:12.035Z,29.70
2023-05-15T01:30:40.888Z,30.20
2023-05-15T01:33:17.770Z,31.30
2023-05-15T01:35:51.928Z,30.30
2023-05-15T01:38:38.389Z,28.70
2023-05-15T01:41:15.304Z,29.80
2023-05-15T01:43:43.985Z,27.60
2023-05-15T01:46:15.413Z,30.10
2023-05-15T01:48:43.855Z,36.60
2023-05-15T01:51:11.587Z,36.90
2023-05-15T01:53:38.411Z,37.70
2023-05-15T01:56:07.504Z,33.10
2023-05-15T01:58:37.078Z,40.20
2023-05-15T02:01:07.651Z,44.80
2023-05-15T02:03:35.248Z,34.70
2023-05-15T02:06:02.871Z,37.60
2023-05-15T02:08:31.510Z,40.90
2023-05-15T02:11:00.048Z,32.90
2023-05-15T02:13:27.140Z,29.10
2023-05-15T02:15:54.469Z,32.60
2023-05-15T02:18:21.639Z,30.40
2023-05-15T02:20:48.492Z,29.50
2023-05-15T02:23:15.499Z,26.70
2023-05-15T02:25:54.545Z,29.90
2023-05-15T02:28:36.552Z,26.60
2023-05-15T02:31:12.312Z,27.40
2023-05-15T02:33:49.009Z,29.40
2023-05-15T02:36:22.025Z,27.70
2023-05-15T02:38:53.218Z,34.10
2023-05-15T02:41:20.872Z,30.30
2023-05-15T02:43:48.533Z,47.90
2023-05-15T02:46:17.136Z,36.60
2023-05-15T02:48:44.177Z,30.20
2023-05-15T02:51:13.039Z,41.80
2023-05-15T02:53:40.712Z,43.80
2023-05-15T02:56:08.124Z,46.80
2023-05-15T02:58:36.016Z,40.40
2023-05-15T03:01:03.848Z,38.10
2023-05-15T03:03:30.698Z,40.70
2023-05-15T03:05:57.685Z,39.60
2023-05-15T03:08:24.940Z,39.10
2023-05-15T03:10:52.452Z,34.10
2023-05-15T03:13:19.541Z,32.50
2023-05-15T03:15:46.389Z,31.50
2023-05-15T03:18:13.671Z,23.50
2023-05-15T03:20:41.679Z,28.80
2023-05-15T03:23:08.477Z,32.90
2023-05-15T03:25:35.430Z,39.80
2023-05-15T03:28:02.213Z,29.40
2023-05-15T03:30:29.633Z,45.40
2023-05-15T03:32:57.415Z,62.20
2023-05-15T03:35:25.673Z,42.30
2023-05-15T03:40:19.501Z,45.80
2023-05-15T03:42:46.490Z,30.30
2023-05-15T03:45:13.462Z,52.60
2023-05-15T03:47:42.282Z,26.80
2023-05-15T03:50:09.963Z,20.90
2023-05-15T03:52:36.898Z,48.40
2023-05-15T03:55:06.766Z,33.60
2023-05-15T03:57:35.096Z,18.10
2023-05-15T04:00:06.844Z,17.00
2023-05-15T04:02:40.471Z,16.40
2023-05-15T04:05:08.285Z,13.10
2023-05-15T04:07:35.978Z,14.60
2023-05-15T04:10:03.497Z,15.50
2023-05-15T04:12:33.383Z,18.90
2023-05-15T04:17:48.931Z,18.80
2023-05-15T04:20:17.502Z,20.90
2023-05-15T04:22:44.477Z,19.20
2023-05-15T04:25:13.056Z,24.10
2023-05-15T04:27:42.154Z,20.50
2023-05-15T04:30:09.460Z,21.60
2023-05-15T04:32:37.544Z,21.50
2023-05-15T04:35:05.201Z,25.90
2023-05-15T04:37:32.177Z,30.60
2023-05-15T04:39:59.169Z,46.10
2023-05-15T04:42:26.253Z,23.50
2023-05-15T04:44:53.667Z,23.10
2023-05-15T04:47:20.608Z,25.20
2023-05-15T04:49:49.456Z,31.10
2023-05-15T04:52:16.925Z,38.00
2023-05-15T04:54:43.961Z,31.80
2023-05-15T04:57:10.806Z,21.40
2023-05-15T04:59:37.916Z,18.10
2023-05-15T05:02:04.726Z,29.40
2023-05-15T05:04:33.483Z,13.90
2023-05-15T05:07:00.740Z,17.10
2023-05-15T05:09:28.362Z,17.20
2023-05-15T05:11:55.040Z,13.00
2023-05-15T05:14:22.511Z,20.60
2023-05-15T05:16:49.626Z,15.50
2023-05-15T05:19:17.574Z,21.60
2023-05-15T05:21:44.454Z,13.30
2023-05-15T05:24:11.272Z,10.50
2023-05-15T05:26:38.340Z,12.40
2023-05-15T05:29:05.181Z,8.80
2023-05-15T05:31:32.773Z,29.90
2023-05-15T05:33:59.466Z,17.60
2023-05-15T05:36:26.199Z,17.30
2023-05-15T05:38:53.250Z,7.00
2023-05-15T05:41:21.246Z,8.70
2023-05-15T05:43:48.067Z,10.00
2023-05-15T05:46:14.896Z,18.90
2023-05-15T05:48:42.019Z,13.40
2023-05-15T05:51:08.797Z,17.30
2023-05-15T05:53:37.522Z,9.80
2023-05-15T05:56:05.373Z,6.10
2023-05-15T05:58:32.506Z,14.30
2023-05-15T06:01:00.206Z,7.40
2023-05-15T06:03:28.514Z,7.30
2023-05-15T06:05:55.338Z,8.90
2023-05-15T06:08:22.432Z,8.60
2023-05-15T06:10:49.267Z,5.70
2023-05-15T06:13:16.044Z,8.30
2023-05-15T06:15:42.902Z,8.70
2023-05-15T06:18:09.704Z,14.50
2023-05-15T06:20:37.728Z,10.50
2023-05-15T06:23:04.905Z,11.60
2023-05-15T06:25:32.229Z,11.50
2023-05-15T06:27:59.169Z,14.70
2023-05-15T06:30:26.416Z,9.70
2023-05-15T06:32:53.882Z,10.60
2023-05-15T06:35:23.515Z,8.10
2023-05-15T06:37:51.751Z,9.70
2023-05-15T06:40:18.514Z,8.70
2023-05-15T06:42:46.506Z,10.00
2023-05-15T06:45:13.335Z,9.50
2023-05-15T06:47:40.565Z,8.90
2023-05-15T06:50:07.710Z,8.20
2023-05-15T06:52:34.519Z,9.00
2023-05-15T06:55:01.501Z,9.00
2023-05-15T06:57:28.612Z,5.20
2023-05-15T06:59:55.398Z,5.70
2023-05-15T07:02:22.229Z,9.40
2023-05-15T07:04:51.532Z,15.00
2023-05-15T07:07:18.351Z,4.80
2023-05-15T07:09:47.782Z,7.60
2023-05-15T07:12:15.033Z,6.50
2023-05-15T07:14:41.980Z,6.00
2023-05-15T07:17:09.071Z,5.80
2023-05-15T07:19:36.554Z,4.40
2023-05-15T07:22:03.779Z,4.50
2023-05-15T07:24:31.925Z,6.30
2023-05-15T07:26:59.380Z,15.40
2023-05-15T07:29:26.345Z,12.50
2023-05-15T07:31:53.466Z,6.50
2023-05-15T07:34:20.509Z,6.20
2023-05-15T07:36:49.019Z,5.40
2023-05-15T07:39:16.112Z,12.90
2023-05-15T07:41:46.570Z,19.00
2023-05-15T07:44:15.005Z,4.40
2023-05-15T07:46:45.016Z,4.50
2023-05-15T07:49:11.844Z,9.40
2023-05-15T07:51:40.163Z,4.50
2023-05-15T07:54:10.558Z,12.70
2023-05-15T07:56:37.419Z,8.50
2023-05-15T07:59:04.275Z,9.50
2023-05-15T08:01:51.678Z,5.60
2023-05-15T08:04:18.558Z,4.00
2023-05-15T08:06:46.752Z,6.60
2023-05-15T08:09:13.429Z,9.80
2023-05-15T08:11:40.183Z,7.30
2023-05-15T08:14:07.160Z,7.90
2023-05-15T08:16:34.721Z,8.00
2023-05-15T08:21:32.029Z,8.70
2023-05-15T08:23:59.210Z,5.80
2023-05-15T08:26:26.215Z,8.20
2023-05-15T08:28:52.951Z,4.40
2023-05-15T08:31:20.781Z,5.60
2023-05-15T08:33:48.793Z,8.80
2023-05-15T08:36:17.969Z,8.90
2023-05-15T08:38:45.014Z,7.70
2023-05-15T08:41:25.904Z,4.20
2023-05-15T08:44:01.040Z,1.60
2023-05-15T08:46:28.207Z,23.50
2023-05-15T08:48:55.099Z,6.30
2023-05-15T08:51:21.902Z,8.00
2023-05-15T08:53:49.138Z,4.70
2023-05-15T08:56:16.061Z,20.30
2023-05-15T08:58:43.859Z,4.40
2023-05-15T09:06:05.221Z,7.00
2023-05-15T09:08:32.078Z,5.40
2023-05-15T09:10:58.893Z,8.60
2023-05-15T09:13:26.114Z,8.40
2023-05-15T09:15:53.059Z,2.90
2023-05-15T09:18:22.651Z,6.20
2023-05-15T09:20:51.011Z,5.70
2023-05-15T09:23:27.269Z,11.30
2023-05-15T09:25:56.259Z,13.60
2023-05-15T09:28:29.541Z,16.70
2023-05-15T09:31:04.005Z,4.00
2023-05-15T09:33:37.728Z,7.30
2023-05-15T09:36:06.235Z,12.60
2023-05-15T09:38:35.322Z,11.30
2023-05-15T09:41:04.467Z,9.20
2023-05-15T09:43:36.356Z,7.80
2023-05-15T09:46:03.381Z,8.00
2023-05-15T09:48:30.490Z,6.20
2023-05-15T09:50:57.542Z,4.30
2023-05-15T09:53:24.765Z,8.60
2023-05-15T09:55:51.874Z,61.80
2023-05-15T10:00:48.174Z,4.40
2023-05-15T10:03:19.791Z,14.10
2023-05-15T10:05:46.850Z,11.00
2023-05-15T10:08:15.168Z,5.10
2023-05-15T10:10:43.261Z,6.50
2023-05-15T10:13:10.773Z,2.80
2023-05-15T10:15:37.716Z,7.10
2023-05-15T10:18:05.089Z,6.70
2023-05-15T10:20:35.226Z,7.60
2023-05-15T10:23:04.098Z,5.40
2023-05-15T10:25:42.531Z,2.60
2023-05-15T10:28:10.707Z,3.20
2023-05-15T10:30:38.048Z,4.80
2023-05-15T10:33:06.130Z,3.00
2023-05-15T10:35:35.662Z,15.50
2023-05-15T10:38:03.949Z,3.90
2023-05-15T10:40:31.893Z,8.50
2023-05-15T10:45:25.897Z,11.20
2023-05-15T10:47:52.679Z,5.50
2023-05-15T10:50:19.918Z,8.40
2023-05-15T10:52:49.742Z,8.50
2023-05-15T10:55:17.022Z,15.20
2023-05-15T10:57:47.048Z,9.10
2023-05-15T11:00:23.292Z,6.50
2023-05-15T11:02:54.039Z,11.80
2023-05-15T11:05:20.884Z,4.20
2023-05-15T11:08:20.971Z,12.90
2023-05-15T11:10:48.485Z,5.10
2023-05-15T11:13:15.801Z,7.30
2023-05-15T11:15:43.728Z,8.10
2023-05-15T11:18:10.773Z,4.90
2023-05-15T11:21:01.325Z,6.50
2023-05-15T11:23:28.591Z,7.90
2023-05-15T11:25:56.554Z,8.30
2023-05-15T11:28:24.346Z,12.00
2023-05-15T11:30:52.295Z,3.90
2023-05-15T11:33:19.958Z,2.90
2023-05-15T11:35:47.209Z,5.40
2023-05-15T11:38:25.711Z,6.10
2023-05-15T11:40:52.905Z,16.50
2023-05-15T11:43:27.087Z,11.70
2023-05-15T11:45:57.282Z,2.70
2023-05-15T11:48:26.644Z,6.60
2023-05-15T11:50:53.471Z,12.20
2023-05-15T11:53:20.548Z,8.80
2023-05-15T11:55:47.443Z,9.10
2023-05-15T11:58:16.287Z,5.40
2023-05-15T12:00:44.795Z,6.00
2023-05-15T12:03:24.174Z,5.10
2023-05-15T12:05:58.865Z,11.70
2023-05-15T12:08:30.640Z,3.20
2023-05-15T12:10:57.689Z,4.70
2023-05-15T12:13:25.019Z,7.20
2023-05-15T12:15:51.822Z,15.70
2023-05-15T12:18:18.768Z,2.90
2023-05-15T12:20:46.444Z,3.30
2023-05-15T12:23:16.790Z,3.70
2023-05-15T12:25:44.439Z,4.40
2023-05-15T12:30:38.207Z,4.30
2023-05-15T12:33:06.408Z,4.40
2023-05-15T12:35:35.170Z,8.60
2023-05-15T12:38:05.908Z,12.80
2023-05-15T12:40:33.410Z,7.00
2023-05-15T12:43:06.994Z,10.20
2023-05-15T12:45:35.746Z,4.50
2023-05-15T12:48:03.293Z,12.80
2023-05-15T12:50:32.387Z,13.90
2023-05-15T12:53:03.513Z,3.30
2023-05-15T12:55:36.157Z,3.30
2023-05-15T12:58:10.612Z,5.00
2023-05-15T13:00:38.926Z,5.50
2023-05-15T13:03:07.973Z,6.80
2023-05-15T13:05:35.630Z,7.20
2023-05-15T13:08:04.328Z,9.20
2023-05-15T13:10:32.186Z,9.60
2023-05-15T13:12:59.410Z,5.40
2023-05-15T13:15:28.122Z,6.50
2023-05-15T13:18:08.526Z,5.30
2023-05-15T13:20:40.253Z,5.80
2023-05-15T13:23:07.392Z,7.10
2023-05-15T13:25:35.483Z,6.60
2023-05-15T13:28:03.705Z,7.90
2023-05-15T13:30:34.248Z,10.00
2023-05-15T13:33:01.500Z,6.00
2023-05-15T13:35:28.752Z,3.20
2023-05-15T13:37:56.269Z,4.40
2023-05-15T13:40:24.138Z,6.80
2023-05-15T13:42:51.379Z,4.80
2023-05-15T13:45:18.291Z,2.40
2023-05-15T13:47:45.196Z,11.40
2023-05-15T13:50:13.256Z,7.70
2023-05-15T13:52:40.663Z,11.00
2023-05-15T13:55:09.303Z,4.20
2023-05-15T13:57:37.450Z,5.50
2023-05-15T14:00:07.184Z,5.80
2023-05-15T14:02:34.780Z,4.20
2023-05-15T14:05:01.718Z,11.20
2023-05-15T14:07:30.489Z,4.90
2023-05-15T14:09:57.523Z,4.20
2023-05-15T14:12:25.938Z,7.60
2023-05-15T14:14:52.972Z,11.80
2023-05-15T14:17:21.859Z,7.70
2023-05-15T14:19:50.651Z,8.70
2023-05-15T14:22:17.492Z,5.10
2023-05-15T14:24:44.253Z,8.10
2023-05-15T14:27:11.048Z,6.40
2023-05-15T14:29:38.768Z,9.70
2023-05-15T14:34:33.717Z,9.20
2023-05-15T14:37:00.528Z,3.40
2023-05-15T14:39:27.262Z,4.70
2023-05-15T14:41:54.174Z,6.40
2023-05-15T14:44:20.873Z,3.60
2023-05-15T14:46:47.633Z,7.80
2023-05-15T14:49:14.534Z,9.70
2023-05-15T14:51:41.649Z,4.70
2023-05-15T14:54:09.196Z,12.20
2023-05-15T14:56:37.232Z,4.30
2023-05-15T14:59:03.945Z,3.40
2023-05-15T15:01:30.983Z,3.70
2023-05-15T15:03:57.929Z,10.60
2023-05-15T15:06:24.944Z,10.50
2023-05-15T15:08:52.310Z,19.00
2023-05-15T15:11:19.024Z,11.50
2023-05-15T15:13:45.945Z,4.90
2023-05-15T15:16:12.998Z,4.40
2023-05-15T15:18:39.768Z,2.30
2023-05-15T15:21:07.089Z,5.30
2023-05-15T15:23:34.169Z,5.30
2023-05-15T15:26:00.973Z,12.00
2023-05-15T15:29:00.271Z,5.40
2023-05-15T15:31:30.001Z,8.80
2023-05-15T15:34:01.859Z,8.60
2023-05-15T15:36:30.876Z,4.10
2023-05-15T15:38:57.669Z,4.20
2023-05-15T15:41:24.532Z,9.60
2023-05-15T15:43:51.330Z,7.10
2023-05-15T15:46:18.764Z,9.50
2023-05-15T15:48:45.602Z,3.50
2023-05-15T15:51:12.516Z,15.20
2023-05-15T15:53:39.360Z,4.00
2023-05-15T15:56:06.967Z,4.10
2023-05-15T15:58:34.455Z,11.10
2023-05-15T16:01:02.087Z,10.20
2023-05-15T16:03:28.972Z,6.10
2023-05-15T16:05:56.622Z,12.60
2023-05-15T16:08:24.869Z,8.80
2023-05-15T16:10:53.301Z,5.50
2023-05-15T16:13:20.099Z,4.20
2023-05-15T16:15:47.345Z,10.20
2023-05-15T16:18:14.372Z,19.50
2023-05-15T16:20:41.219Z,15.40
2023-05-15T16:23:10.948Z,24.80
2023-05-15T16:25:37.734Z,10.40
2023-05-15T16:28:04.596Z,9.10
2023-05-15T16:30:47.244Z,6.10
2023-05-15T16:33:16.900Z,6.00
2023-05-15T16:35:44.072Z,8.10
2023-05-15T16:38:10.837Z,5.50
2023-05-15T16:40:37.675Z,8.80
2023-05-15T16:43:05.397Z,7.90
2023-05-15T16:45:32.275Z,7.90
2023-05-15T16:47:59.063Z,12.30
2023-05-15T16:50:26.159Z,16.20
2023-05-15T16:52:53.067Z,7.90
2023-05-15T16:55:20.258Z,11.10
2023-05-15T16:57:47.524Z,15.50
2023-05-15T17:00:14.780Z,15.30
2023-05-15T17:05:10.033Z,12.10
2023-05-15T17:07:37.615Z,13.80
2023-05-15T17:10:08.266Z,16.70
2023-05-15T17:12:35.766Z,11.40
2023-05-15T17:15:03.295Z,9.40
2023-05-15T17:19:59.301Z,15.20
2023-05-15T17:22:26.808Z,13.70
2023-05-15T17:24:53.948Z,26.50
2023-05-15T17:27:20.877Z,16.50
2023-05-15T17:29:48.585Z,34.60
2023-05-15T17:32:17.390Z,15.80
2023-05-15T17:34:44.900Z,14.90
2023-05-15T17:37:12.233Z,7.60
2023-05-15T17:39:39.008Z,22.80
2023-05-15T17:42:05.789Z,12.00
2023-05-15T17:44:33.380Z,14.80
2023-05-15T17:47:00.209Z,8.40
2023-05-15T17:49:27.414Z,11.30
2023-05-15T17:51:54.187Z,13.80
2023-05-15T17:54:20.965Z,19.70
2023-05-15T17:56:47.924Z,17.20
2023-05-15T17:59:15.007Z,13.40
2023-05-15T18:01:41.899Z,23.60
2023-05-15T18:04:09.173Z,10.10
2023-05-15T18:06:38.599Z,7.70
2023-05-15T18:09:05.473Z,5.40
2023-05-15T18:11:32.681Z,9.50
2023-05-15T18:14:00.405Z,12.60
2023-05-15T18:16:27.422Z,17.30
2023-05-15T18:18:54.660Z,12.50
2023-05-15T18:21:22.045Z,19.10
2023-05-15T18:23:49.012Z,23.20
2023-05-15T18:26:15.871Z,29.50
2023-05-15T18:28:43.158Z,9.00
2023-05-15T18:31:10.645Z,11.20
2023-05-15T18:33:40.079Z,10.30
2023-05-15T18:36:07.610Z,14.80
2023-05-15T18:38:36.564Z,13.70
2023-05-15T18:41:03.361Z,8.60
2023-05-15T18:43:32.453Z,12.70
2023-05-15T18:45:59.331Z,8.40
2023-05-15T18:48:26.112Z,11.60
2023-05-15T18:50:53.023Z,10.40
2023-05-15T18:53:19.833Z,11.70
2023-05-15T18:55:46.667Z,20.80
2023-05-15T18:58:13.558Z,13.20
2023-05-15T19:00:40.338Z,11.70
2023-05-15T19:03:07.885Z,15.60
2023-05-15T19:05:35.182Z,12.60
2023-05-15T19:08:03.679Z,17.90
2023-05-15T19:10:31.826Z,19.10
2023-05-15T19:15:25.761Z,20.80
2023-05-15T19:17:52.781Z,11.20
2023-05-15T19:20:20.174Z,54.50
2023-05-15T19:22:47.217Z,27.90
2023-05-15T19:25:14.676Z,17.70
2023-05-15T19:27:41.714Z,22.60
2023-05-15T19:30:09.347Z,15.40
2023-05-15T19:35:05.449Z,13.90
2023-05-15T19:37:32.249Z,19.00
2023-05-15T19:39:59.248Z,12.30
2023-05-15T19:42:26.080Z,12.00
2023-05-15T19:44:53.037Z,6.20
2023-05-15T19:47:20.312Z,8.10
2023-05-15T19:49:47.886Z,11.20
2023-05-15T19:52:15.756Z,9.30
2023-05-15T19:54:42.891Z,10.70
2023-05-15T19:57:10.070Z,9.60
2023-05-15T19:59:37.887Z,9.40
2023-05-15T20:02:09.140Z,7.90
2023-05-15T20:04:36.912Z,4.70
2023-05-15T20:07:04.079Z,8.40
2023-05-15T20:09:30.930Z,6.60
2023-05-15T20:11:57.854Z,6.20
2023-05-15T20:14:25.690Z,9.90
2023-05-15T20:16:52.640Z,13.90
2023-05-15T20:19:21.472Z,7.60
2023-05-15T20:21:48.417Z,8.10
2023-05-15T20:24:16.978Z,4.60
2023-05-15T20:26:44.507Z,9.90
2023-05-15T20:29:11.368Z,6.50
2023-05-15T20:31:39.804Z,6.00
2023-05-15T20:34:07.708Z,8.80
2023-05-15T20:36:35.354Z,6.80
2023-05-15T20:39:05.210Z,8.40
2023-05-15T20:41:33.180Z,6.50
2023-05-15T20:43:59.930Z,10.30
2023-05-15T20:46:29.718Z,6.80
2023-05-15T20:48:57.124Z,4.40
2023-05-15T20:51:24.005Z,5.00
2023-05-15T20:53:50.779Z,4.00
2023-05-15T20:56:18.660Z,10.20
2023-05-15T20:58:45.444Z,11.90
2023-05-15T21:01:12.764Z,6.00
2023-05-15T21:03:39.620Z,6.80
2023-05-15T21:06:06.600Z,6.70
2023-05-15T21:08:33.435Z,10.90
2023-05-15T21:11:00.437Z,6.50
2023-05-15T21:13:27.526Z,4.80
2023-05-15T21:15:54.570Z,12.90
2023-05-15T21:18:22.443Z,9.40
2023-05-15T21:20:49.314Z,10.40
2023-05-15T21:23:16.405Z,4.80
2023-05-15T21:25:43.479Z,7.00
2023-05-15T21:28:10.660Z,9.60
2023-05-15T21:30:37.471Z,7.30
2023-05-15T21:33:04.409Z,5.50
2023-05-15T21:35:31.677Z,4.70
2023-05-15T21:37:59.036Z,9.80
2023-05-15T21:40:26.016Z,8.10
2023-05-15T21:42:53.241Z,5.10
2023-05-15T21:45:20.107Z,9.30
2023-05-15T21:47:46.993Z,10.10
2023-05-15T21:50:14.923Z,6.80
2023-05-15T21:52:42.053Z,8.50
2023-05-15T21:55:08.987Z,10.80
2023-05-15T21:57:35.668Z,10.90
2023-05-15T22:00:03.873Z,16.30
2023-05-15T22:02:33.106Z,6.10
2023-05-15T22:04:59.950Z,7.90
2023-05-15T22:07:26.744Z,8.00
2023-05-15T22:09:53.550Z,6.80
2023-05-15T22:12:20.884Z,15.10
2023-05-15T22:14:58.303Z,6.50
2023-05-15T22:17:26.548Z,9.20
2023-05-15T22:19:53.392Z,9.90
2023-05-15T22:22:20.293Z,6.20
2023-05-15T22:24:47.444Z,7.70
2023-05-15T22:27:16.071Z,6.30
2023-05-15T22:29:43.295Z,4.50
2023-05-15T22:32:10.118Z,5.70
2023-05-15T22:34:37.418Z,6.10
2023-05-15T22:37:04.354Z,4.20
2023-05-15T22:39:32.645Z,8.80
2023-05-15T22:41:59.453Z,6.60
2023-05-15T22:44:26.996Z,9.20
2023-05-15T22:46:53.670Z,8.20
2023-05-15T22:49:24.911Z,7.10
2023-05-15T22:51:52.945Z,6.00
2023-05-15T22:54:21.259Z,13.30
2023-05-15T22:56:49.697Z,6.40
2023-05-15T22:59:16.421Z,9.20
2023-05-15T23:01:43.836Z,14.60
2023-05-15T23:04:11.252Z,4.50
2023-05-15T23:06:39.774Z,4.90
2023-05-15T23:09:07.908Z,8.10
2023-05-15T23:11:35.025Z,10.80
2023-05-15T23:14:02.502Z,7.50
2023-05-15T23:16:30.235Z,8.50
2023-05-15T23:18:57.250Z,8.50
2023-05-15T23:21:24.076Z,8.50
2023-05-15T23:23:51.050Z,5.80
2023-05-15T23:26:17.881Z,9.40
2023-05-15T23:28:44.731Z,8.60
2023-05-15T23:31:14.572Z,8.40
2023-05-15T23:33:41.584Z,6.40
2023-05-15T23:36:08.500Z,10.40
2023-05-15T23:38:35.240Z,5.80
2023-05-15T23:41:02.216Z,7.70
2023-05-15T23:43:29.344Z,6.70
2023-05-15T23:45:56.395Z,7.00
2023-05-15T23:48:23.253Z,4.10
2023-05-15T23:50:51.679Z,6.00
2023-05-15T23:53:18.649Z,6.80
2023-05-15T23:55:45.776Z,6.70
2023-05-15T23:58:12.757Z,7.90
